首页
METAR-TAF:

METAR-TAF

机场 :

佩皮尼昂, 法国

纬度: 42-44N, 经度: 002-52E, 海拔: 43米

当前天气观测

该预报发布于23分钟前的21:30 UTC
风速10节,风向西转西北
温度 12°C
湿度 71%
气压 1007 hPa
能见度10公里或以上
少量云层高于3200英尺
散云层高于3900英尺
多云层高于5600英尺

METAR: LFMP 122130Z AUTO 29010KT 9999 FEW032 SCT039 BKN056 12/07 Q1007 NOSIG

时间: 22:53 (21:53 UTC)

预报

该预报发布于7小时和53分钟前的14:00 UTC
预报有效从12日的 15点(UTC)到 13日的 15点(UTC)
风速16节,风向西转西北
能见度10公里或以上
少量云层高于4000英尺
多云层高于5300英尺
短暂存在
从 12日的 15点(UTC)到 12日的 18点(UTC)
风速20节,风向西北,有时为33节阵风
成为
从 12日的 23点(UTC)到 13日的 01点(UTC)
风速5节,风向北转西北
成为
从 13日的 10点(UTC)到 13日的 12点(UTC)
风速16节,风向西北
短暂存在
从 13日的 13点(UTC)到 13日的 15点(UTC)
风速15节,风向西北,有时为25节阵风

TAF: LFMP 121400Z 1215/1315 30016KT 9999 FEW040 BKN053 TEMPO 1215/1218 31020G33KT BECMG 1223/1301 33005KT NSC BECMG 1310/1312 32016KT NSC TEMPO 1313/1315 32015G25KT

超过4000个机场的气象观测和天气预报(METAR&TAF报告)。

可查询的气象台以黄色和红色小点在地图上表示。

将鼠标移到小点上方,可查看气象台名称。

然后点击查看天气观测和预报。

如需切换地图:点击带黑十字的绿色按钮放大地图;点击带横线的绿色按钮缩小地图;或者点击绿色箭头查看邻近地区的地图。


METAR-TAF: